sensor_id;sensor_type;location;lat;lon;timestamp;P1;durP1;ratioP1;P2;durP2;ratioP2
26620;SDS011;14253;44.840;10.444;2023-02-15T00:02:16;40.70;;;18.15;;
26620;SDS011;14253;44.840;10.444;2023-02-15T00:04:42;39.42;;;16.70;;
26620;SDS011;14253;44.840;10.444;2023-02-15T00:07:14;40.83;;;16.80;;
26620;SDS011;14253;44.840;10.444;2023-02-15T00:09:41;38.22;;;15.70;;
26620;SDS011;14253;44.840;10.444;2023-02-15T00:12:08;37.75;;;16.95;;
26620;SDS011;14253;44.840;10.444;2023-02-15T00:14:34;42.20;;;17.55;;
26620;SDS011;14253;44.840;10.444;2023-02-15T00:17:01;42.30;;;16.98;;
26620;SDS011;14253;44.840;10.444;2023-02-15T00:19:27;38.40;;;15.60;;
26620;SDS011;14253;44.840;10.444;2023-02-15T00:21:52;42.63;;;18.15;;
26620;SDS011;14253;44.840;10.444;2023-02-15T00:24:19;39.60;;;17.23;;
26620;SDS011;14253;44.840;10.444;2023-02-15T00:26:45;38.33;;;17.30;;
26620;SDS011;14253;44.840;10.444;2023-02-15T00:29:12;39.65;;;15.60;;
26620;SDS011;14253;44.840;10.444;2023-02-15T00:31:40;39.20;;;15.88;;
26620;SDS011;14253;44.840;10.444;2023-02-15T00:34:06;39.35;;;17.33;;
26620;SDS011;14253;44.840;10.444;2023-02-15T00:36:36;39.13;;;15.98;;
26620;SDS011;14253;44.840;10.444;2023-02-15T00:39:02;41.75;;;16.98;;
26620;SDS011;14253;44.840;10.444;2023-02-15T00:41:30;42.60;;;18.95;;
26620;SDS011;14253;44.840;10.444;2023-02-15T00:43:57;44.40;;;17.85;;
26620;SDS011;14253;44.840;10.444;2023-02-15T00:46:22;42.13;;;17.38;;
26620;SDS011;14253;44.840;10.444;2023-02-15T00:48:48;38.50;;;17.65;;
26620;SDS011;14253;44.840;10.444;2023-02-15T00:51:15;50.20;;;18.80;;
26620;SDS011;14253;44.840;10.444;2023-02-15T00:53:42;43.80;;;18.10;;
26620;SDS011;14253;44.840;10.444;2023-02-15T00:56:09;44.85;;;17.42;;
26620;SDS011;14253;44.840;10.444;2023-02-15T00:58:36;43.45;;;17.23;;
26620;SDS011;14253;44.840;10.444;2023-02-15T01:01:06;38.90;;;16.42;;
26620;SDS011;14253;44.840;10.444;2023-02-15T01:03:33;40.63;;;16.80;;
26620;SDS011;14253;44.840;10.444;2023-02-15T01:06:01;39.80;;;17.70;;
26620;SDS011;14253;44.840;10.444;2023-02-15T01:08:28;38.42;;;17.05;;
26620;SDS011;14253;44.840;10.444;2023-02-15T01:10:54;51.97;;;19.40;;
26620;SDS011;14253;44.840;10.444;2023-02-15T01:13:20;44.40;;;19.00;;
26620;SDS011;14253;44.840;10.444;2023-02-15T01:15:52;43.53;;;18.83;;
26620;SDS011;14253;44.840;10.444;2023-02-15T01:18:19;41.75;;;19.80;;
26620;SDS011;14253;44.840;10.444;2023-02-15T01:20:47;40.88;;;17.77;;
26620;SDS011;14253;44.840;10.444;2023-02-15T01:23:13;44.67;;;18.77;;
26620;SDS011;14253;44.840;10.444;2023-02-15T01:25:39;40.63;;;17.75;;
26620;SDS011;14253;44.840;10.444;2023-02-15T01:28:05;42.95;;;18.70;;
26620;SDS011;14253;44.840;10.444;2023-02-15T01:30:31;42.15;;;18.33;;
26620;SDS011;14253;44.840;10.444;2023-02-15T01:32:58;41.38;;;17.67;;
26620;SDS011;14253;44.840;10.444;2023-02-15T01:35:26;37.92;;;17.88;;
26620;SDS011;14253;44.840;10.444;2023-02-15T01:37:54;38.83;;;17.25;;
26620;SDS011;14253;44.840;10.444;2023-02-15T01:40:20;44.95;;;17.77;;
26620;SDS011;14253;44.840;10.444;2023-02-15T01:42:51;40.83;;;17.05;;
26620;SDS011;14253;44.840;10.444;2023-02-15T01:45:28;42.53;;;17.48;;
26620;SDS011;14253;44.840;10.444;2023-02-15T01:48:00;45.10;;;17.63;;
26620;SDS011;14253;44.840;10.444;2023-02-15T01:53:07;36.58;;;15.95;;
26620;SDS011;14253;44.840;10.444;2023-02-15T01:55:50;40.92;;;17.17;;
26620;SDS011;14253;44.840;10.444;2023-02-15T01:58:24;45.50;;;18.23;;
26620;SDS011;14253;44.840;10.444;2023-02-15T02:00:54;40.33;;;17.52;;
26620;SDS011;14253;44.840;10.444;2023-02-15T02:06:11;44.17;;;16.67;;
26620;SDS011;14253;44.840;10.444;2023-02-15T02:08:38;43.92;;;17.88;;
26620;SDS011;14253;44.840;10.444;2023-02-15T02:11:11;37.58;;;17.05;;
26620;SDS011;14253;44.840;10.444;2023-02-15T02:13:39;48.50;;;17.77;;
26620;SDS011;14253;44.840;10.444;2023-02-15T02:21:47;41.85;;;16.52;;
26620;SDS011;14253;44.840;10.444;2023-02-15T02:24:43;39.30;;;17.10;;
26620;SDS011;14253;44.840;10.444;2023-02-15T02:35:57;38.60;;;16.20;;
26620;SDS011;14253;44.840;10.444;2023-02-15T02:38:29;37.88;;;17.00;;
26620;SDS011;14253;44.840;10.444;2023-02-15T02:46:32;38.25;;;16.15;;
26620;SDS011;14253;44.840;10.444;2023-02-15T02:49:29;39.58;;;14.85;;
26620;SDS011;14253;44.840;10.444;2023-02-15T02:52:05;44.67;;;15.52;;
26620;SDS011;14253;44.840;10.444;2023-02-15T02:54:33;41.70;;;16.10;;
26620;SDS011;14253;44.840;10.444;2023-02-15T02:57:01;38.70;;;16.25;;
26620;SDS011;14253;44.840;10.444;2023-02-15T02:59:32;40.58;;;16.30;;
26620;SDS011;14253;44.840;10.444;2023-02-15T03:02:05;41.28;;;15.45;;
26620;SDS011;14253;44.840;10.444;2023-02-15T03:04:45;40.10;;;16.17;;
26620;SDS011;14253;44.840;10.444;2023-02-15T03:07:15;40.58;;;15.25;;
26620;SDS011;14253;44.840;10.444;2023-02-15T03:09:49;38.25;;;15.55;;
26620;SDS011;14253;44.840;10.444;2023-02-15T03:12:21;41.92;;;16.20;;
26620;SDS011;14253;44.840;10.444;2023-02-15T03:14:55;40.45;;;15.63;;
26620;SDS011;14253;44.840;10.444;2023-02-15T03:17:26;43.00;;;17.25;;
26620;SDS011;14253;44.840;10.444;2023-02-15T03:19:55;43.00;;;18.08;;
26620;SDS011;14253;44.840;10.444;2023-02-15T03:22:28;45.20;;;18.50;;
26620;SDS011;14253;44.840;10.444;2023-02-15T03:27:47;46.50;;;18.55;;
26620;SDS011;14253;44.840;10.444;2023-02-15T03:30:18;43.72;;;19.25;;
26620;SDS011;14253;44.840;10.444;2023-02-15T03:32:48;46.22;;;18.08;;
26620;SDS011;14253;44.840;10.444;2023-02-15T03:35:16;43.97;;;18.17;;
26620;SDS011;14253;44.840;10.444;2023-02-15T03:37:47;47.70;;;18.15;;
26620;SDS011;14253;44.840;10.444;2023-02-15T03:40:18;45.17;;;18.20;;
26620;SDS011;14253;44.840;10.444;2023-02-15T03:43:10;51.95;;;19.63;;
26620;SDS011;14253;44.840;10.444;2023-02-15T03:46:23;42.80;;;18.15;;
26620;SDS011;14253;44.840;10.444;2023-02-15T03:49:13;48.63;;;19.13;;
26620;SDS011;14253;44.840;10.444;2023-02-15T03:51:48;46.35;;;19.33;;
26620;SDS011;14253;44.840;10.444;2023-02-15T03:57:06;51.58;;;20.52;;
26620;SDS011;14253;44.840;10.444;2023-02-15T03:59:53;43.35;;;18.92;;
26620;SDS011;14253;44.840;10.444;2023-02-15T04:02:39;46.03;;;20.25;;
26620;SDS011;14253;44.840;10.444;2023-02-15T04:05:26;47.70;;;19.48;;
26620;SDS011;14253;44.840;10.444;2023-02-15T04:07:52;46.47;;;18.15;;
26620;SDS011;14253;44.840;10.444;2023-02-15T04:10:17;45.88;;;19.15;;
26620;SDS011;14253;44.840;10.444;2023-02-15T04:13:02;48.03;;;19.20;;
26620;SDS011;14253;44.840;10.444;2023-02-15T04:15:28;45.47;;;18.92;;
26620;SDS011;14253;44.840;10.444;2023-02-15T04:18:13;43.47;;;19.25;;
26620;SDS011;14253;44.840;10.444;2023-02-15T04:20:39;46.95;;;19.50;;
26620;SDS011;14253;44.840;10.444;2023-02-15T04:23:26;43.75;;;19.00;;
26620;SDS011;14253;44.840;10.444;2023-02-15T04:26:11;41.85;;;17.65;;
26620;SDS011;14253;44.840;10.444;2023-02-15T04:28:37;48.95;;;19.52;;
26620;SDS011;14253;44.840;10.444;2023-02-15T04:31:03;45.75;;;18.83;;
26620;SDS011;14253;44.840;10.444;2023-02-15T04:33:28;47.58;;;18.77;;
26620;SDS011;14253;44.840;10.444;2023-02-15T04:35:54;38.80;;;16.55;;
26620;SDS011;14253;44.840;10.444;2023-02-15T04:38:21;46.75;;;17.33;;
26620;SDS011;14253;44.840;10.444;2023-02-15T04:40:51;44.13;;;17.38;;
26620;SDS011;14253;44.840;10.444;2023-02-15T04:43:20;47.00;;;19.17;;
26620;SDS011;14253;44.840;10.444;2023-02-15T04:45:49;42.53;;;18.85;;
26620;SDS011;14253;44.840;10.444;2023-02-15T04:48:15;39.53;;;16.60;;
26620;SDS011;14253;44.840;10.444;2023-02-15T04:50:42;46.95;;;18.52;;
26620;SDS011;14253;44.840;10.444;2023-02-15T04:53:08;41.72;;;17.20;;
26620;SDS011;14253;44.840;10.444;2023-02-15T04:55:35;45.72;;;18.42;;
26620;SDS011;14253;44.840;10.444;2023-02-15T04:58:01;41.15;;;15.93;;
26620;SDS011;14253;44.840;10.444;2023-02-15T05:00:27;43.03;;;17.38;;
26620;SDS011;14253;44.840;10.444;2023-02-15T05:02:53;46.33;;;17.15;;
26620;SDS011;14253;44.840;10.444;2023-02-15T05:05:19;44.05;;;17.25;;
26620;SDS011;14253;44.840;10.444;2023-02-15T05:07:45;45.08;;;17.10;;
26620;SDS011;14253;44.840;10.444;2023-02-15T05:10:11;38.00;;;16.92;;
26620;SDS011;14253;44.840;10.444;2023-02-15T05:12:37;37.70;;;15.32;;
26620;SDS011;14253;44.840;10.444;2023-02-15T05:15:03;43.75;;;15.18;;
26620;SDS011;14253;44.840;10.444;2023-02-15T05:17:29;37.58;;;14.95;;
26620;SDS011;14253;44.840;10.444;2023-02-15T05:19:55;35.85;;;14.32;;
26620;SDS011;14253;44.840;10.444;2023-02-15T05:22:21;38.65;;;15.20;;
26620;SDS011;14253;44.840;10.444;2023-02-15T05:24:47;40.38;;;16.10;;
26620;SDS011;14253;44.840;10.444;2023-02-15T05:27:31;46.05;;;15.52;;
26620;SDS011;14253;44.840;10.444;2023-02-15T05:30:16;36.95;;;14.70;;
26620;SDS011;14253;44.840;10.444;2023-02-15T05:32:42;37.20;;;15.32;;
26620;SDS011;14253;44.840;10.444;2023-02-15T05:35:11;37.30;;;15.75;;
26620;SDS011;14253;44.840;10.444;2023-02-15T05:37:39;37.95;;;15.38;;
26620;SDS011;14253;44.840;10.444;2023-02-15T05:40:05;41.85;;;16.42;;
26620;SDS011;14253;44.840;10.444;2023-02-15T05:42:32;39.45;;;16.30;;
26620;SDS011;14253;44.840;10.444;2023-02-15T05:44:58;39.13;;;15.88;;
26620;SDS011;14253;44.840;10.444;2023-02-15T05:47:24;42.92;;;16.02;;
26620;SDS011;14253;44.840;10.444;2023-02-15T05:49:50;40.00;;;15.57;;
26620;SDS011;14253;44.840;10.444;2023-02-15T05:52:16;44.75;;;16.25;;
26620;SDS011;14253;44.840;10.444;2023-02-15T05:54:42;47.42;;;16.95;;
26620;SDS011;14253;44.840;10.444;2023-02-15T05:57:08;47.05;;;17.48;;
26620;SDS011;14253;44.840;10.444;2023-02-15T05:59:34;52.75;;;19.98;;
26620;SDS011;14253;44.840;10.444;2023-02-15T06:01:59;50.13;;;18.58;;
26620;SDS011;14253;44.840;10.444;2023-02-15T06:04:25;46.58;;;18.00;;
26620;SDS011;14253;44.840;10.444;2023-02-15T06:06:51;46.90;;;17.92;;
26620;SDS011;14253;44.840;10.444;2023-02-15T06:09:17;40.70;;;14.93;;
26620;SDS011;14253;44.840;10.444;2023-02-15T06:11:45;39.58;;;17.58;;
26620;SDS011;14253;44.840;10.444;2023-02-15T06:14:11;38.72;;;14.75;;
26620;SDS011;14253;44.840;10.444;2023-02-15T06:16:37;32.30;;;13.18;;
26620;SDS011;14253;44.840;10.444;2023-02-15T06:19:03;32.90;;;12.40;;
26620;SDS011;14253;44.840;10.444;2023-02-15T06:21:29;34.70;;;12.80;;
26620;SDS011;14253;44.840;10.444;2023-02-15T06:23:56;32.75;;;12.95;;
26620;SDS011;14253;44.840;10.444;2023-02-15T06:26:22;31.58;;;13.73;;
26620;SDS011;14253;44.840;10.444;2023-02-15T06:28:48;35.72;;;13.35;;
26620;SDS011;14253;44.840;10.444;2023-02-15T06:31:14;36.42;;;14.10;;
26620;SDS011;14253;44.840;10.444;2023-02-15T06:33:40;31.27;;;12.02;;
26620;SDS011;14253;44.840;10.444;2023-02-15T06:36:06;31.35;;;11.50;;
26620;SDS011;14253;44.840;10.444;2023-02-15T06:38:32;29.13;;;12.32;;
26620;SDS011;14253;44.840;10.444;2023-02-15T06:40:58;34.25;;;13.45;;
26620;SDS011;14253;44.840;10.444;2023-02-15T06:43:24;31.20;;;14.25;;
26620;SDS011;14253;44.840;10.444;2023-02-15T06:45:50;35.83;;;14.05;;
26620;SDS011;14253;44.840;10.444;2023-02-15T06:48:16;34.85;;;13.02;;
26620;SDS011;14253;44.840;10.444;2023-02-15T06:50:42;33.05;;;13.50;;
26620;SDS011;14253;44.840;10.444;2023-02-15T06:53:07;33.13;;;13.50;;
26620;SDS011;14253;44.840;10.444;2023-02-15T06:55:33;30.90;;;12.98;;
26620;SDS011;14253;44.840;10.444;2023-02-15T06:57:59;39.05;;;12.63;;
26620;SDS011;14253;44.840;10.444;2023-02-15T07:00:25;36.42;;;14.98;;
26620;SDS011;14253;44.840;10.444;2023-02-15T07:02:54;36.28;;;13.90;;
26620;SDS011;14253;44.840;10.444;2023-02-15T07:05:22;32.88;;;13.07;;
26620;SDS011;14253;44.840;10.444;2023-02-15T07:07:48;35.50;;;13.15;;
26620;SDS011;14253;44.840;10.444;2023-02-15T07:10:14;31.23;;;12.63;;
26620;SDS011;14253;44.840;10.444;2023-02-15T07:12:40;30.38;;;12.73;;
26620;SDS011;14253;44.840;10.444;2023-02-15T07:15:10;30.92;;;13.07;;
26620;SDS011;14253;44.840;10.444;2023-02-15T07:17:38;29.77;;;13.00;;
26620;SDS011;14253;44.840;10.444;2023-02-15T07:20:05;35.85;;;14.95;;
26620;SDS011;14253;44.840;10.444;2023-02-15T07:22:34;33.80;;;13.45;;
26620;SDS011;14253;44.840;10.444;2023-02-15T07:25:02;32.25;;;13.38;;
26620;SDS011;14253;44.840;10.444;2023-02-15T07:27:32;29.87;;;12.53;;
26620;SDS011;14253;44.840;10.444;2023-02-15T07:29:59;29.48;;;11.60;;
26620;SDS011;14253;44.840;10.444;2023-02-15T07:32:29;33.85;;;15.43;;
26620;SDS011;14253;44.840;10.444;2023-02-15T07:34:56;31.02;;;12.95;;
26620;SDS011;14253;44.840;10.444;2023-02-15T07:37:23;29.40;;;13.55;;
26620;SDS011;14253;44.840;10.444;2023-02-15T07:39:51;30.20;;;12.25;;
26620;SDS011;14253;44.840;10.444;2023-02-15T07:42:17;31.25;;;12.55;;
26620;SDS011;14253;44.840;10.444;2023-02-15T07:44:45;33.10;;;12.90;;
26620;SDS011;14253;44.840;10.444;2023-02-15T07:47:11;23.42;;;11.38;;
26620;SDS011;14253;44.840;10.444;2023-02-15T07:49:37;26.35;;;10.93;;
26620;SDS011;14253;44.840;10.444;2023-02-15T07:52:03;25.00;;;10.50;;
26620;SDS011;14253;44.840;10.444;2023-02-15T07:54:30;20.65;;;10.27;;
26620;SDS011;14253;44.840;10.444;2023-02-15T07:56:58;19.33;;;9.55;;
26620;SDS011;14253;44.840;10.444;2023-02-15T07:59:25;18.65;;;9.25;;
26620;SDS011;14253;44.840;10.444;2023-02-15T08:01:52;21.00;;;9.40;;
26620;SDS011;14253;44.840;10.444;2023-02-15T08:04:19;17.17;;;8.93;;
26620;SDS011;14253;44.840;10.444;2023-02-15T08:06:45;21.63;;;9.10;;
26620;SDS011;14253;44.840;10.444;2023-02-15T08:09:11;17.95;;;7.85;;
26620;SDS011;14253;44.840;10.444;2023-02-15T08:11:38;19.98;;;8.38;;
26620;SDS011;14253;44.840;10.444;2023-02-15T08:14:20;16.33;;;8.18;;
26620;SDS011;14253;44.840;10.444;2023-02-15T08:16:50;16.98;;;8.05;;
26620;SDS011;14253;44.840;10.444;2023-02-15T08:19:28;20.40;;;8.48;;
26620;SDS011;14253;44.840;10.444;2023-02-15T08:21:56;13.90;;;7.82;;
26620;SDS011;14253;44.840;10.444;2023-02-15T08:24:24;20.95;;;9.07;;
26620;SDS011;14253;44.840;10.444;2023-02-15T08:26:52;27.17;;;9.15;;
26620;SDS011;14253;44.840;10.444;2023-02-15T08:29:20;20.75;;;10.40;;
26620;SDS011;14253;44.840;10.444;2023-02-15T08:31:49;26.65;;;12.80;;
26620;SDS011;14253;44.840;10.444;2023-02-15T08:34:18;30.65;;;12.77;;
26620;SDS011;14253;44.840;10.444;2023-02-15T08:36:46;37.30;;;18.25;;
26620;SDS011;14253;44.840;10.444;2023-02-15T08:39:12;46.95;;;22.75;;
26620;SDS011;14253;44.840;10.444;2023-02-15T08:41:41;60.92;;;29.05;;
26620;SDS011;14253;44.840;10.444;2023-02-15T08:46:39;63.70;;;32.45;;
26620;SDS011;14253;44.840;10.444;2023-02-15T08:49:07;60.58;;;30.77;;
26620;SDS011;14253;44.840;10.444;2023-02-15T08:51:34;77.55;;;36.05;;
26620;SDS011;14253;44.840;10.444;2023-02-15T08:54:03;78.80;;;37.70;;
26620;SDS011;14253;44.840;10.444;2023-02-15T08:56:35;77.63;;;38.22;;
26620;SDS011;14253;44.840;10.444;2023-02-15T08:59:03;68.38;;;36.20;;
26620;SDS011;14253;44.840;10.444;2023-02-15T09:01:30;77.05;;;37.55;;
26620;SDS011;14253;44.840;10.444;2023-02-15T09:03:59;84.10;;;38.53;;
26620;SDS011;14253;44.840;10.444;2023-02-15T09:06:27;75.07;;;36.45;;
26620;SDS011;14253;44.840;10.444;2023-02-15T09:08:53;81.53;;;38.15;;
26620;SDS011;14253;44.840;10.444;2023-02-15T09:11:21;76.18;;;37.75;;
26620;SDS011;14253;44.840;10.444;2023-02-15T09:13:58;77.50;;;37.25;;
26620;SDS011;14253;44.840;10.444;2023-02-15T09:16:34;78.82;;;39.15;;
26620;SDS011;14253;44.840;10.444;2023-02-15T09:19:02;90.22;;;43.42;;
26620;SDS011;14253;44.840;10.444;2023-02-15T09:21:32;80.78;;;40.67;;
26620;SDS011;14253;44.840;10.444;2023-02-15T09:24:02;80.95;;;38.20;;
26620;SDS011;14253;44.840;10.444;2023-02-15T09:26:30;79.25;;;39.67;;
26620;SDS011;14253;44.840;10.444;2023-02-15T09:28:58;90.72;;;42.15;;
26620;SDS011;14253;44.840;10.444;2023-02-15T09:31:28;83.43;;;40.10;;
26620;SDS011;14253;44.840;10.444;2023-02-15T09:33:55;81.32;;;40.25;;
26620;SDS011;14253;44.840;10.444;2023-02-15T09:36:24;77.28;;;38.42;;
26620;SDS011;14253;44.840;10.444;2023-02-15T10:13:08;79.03;;;39.38;;
26620;SDS011;14253;44.840;10.444;2023-02-15T10:15:53;73.22;;;37.97;;
26620;SDS011;14253;44.840;10.444;2023-02-15T10:21:14;77.97;;;39.10;;
26620;SDS011;14253;44.840;10.444;2023-02-15T10:24:17;73.53;;;36.10;;
26620;SDS011;14253;44.840;10.444;2023-02-15T10:27:10;68.03;;;35.38;;
26620;SDS011;14253;44.840;10.444;2023-02-15T10:29:39;70.38;;;34.55;;
26620;SDS011;14253;44.840;10.444;2023-02-15T10:43:26;62.38;;;32.88;;
26620;SDS011;14253;44.840;10.444;2023-02-15T10:54:16;62.15;;;31.45;;
26620;SDS011;14253;44.840;10.444;2023-02-15T10:57:44;61.08;;;29.67;;
26620;SDS011;14253;44.840;10.444;2023-02-15T11:05:56;59.47;;;30.23;;
26620;SDS011;14253;44.840;10.444;2023-02-15T11:08:43;56.08;;;27.83;;
26620;SDS011;14253;44.840;10.444;2023-02-15T11:11:19;57.33;;;28.70;;
26620;SDS011;14253;44.840;10.444;2023-02-15T11:13:51;61.22;;;29.10;;
26620;SDS011;14253;44.840;10.444;2023-02-15T11:16:23;63.40;;;29.67;;
26620;SDS011;14253;44.840;10.444;2023-02-15T11:18:57;56.90;;;27.35;;
26620;SDS011;14253;44.840;10.444;2023-02-15T11:21:44;53.53;;;27.23;;
26620;SDS011;14253;44.840;10.444;2023-02-15T11:24:16;55.88;;;27.30;;
26620;SDS011;14253;44.840;10.444;2023-02-15T11:26:57;53.75;;;26.88;;
26620;SDS011;14253;44.840;10.444;2023-02-15T11:29:37;56.53;;;26.77;;
26620;SDS011;14253;44.840;10.444;2023-02-15T11:37:40;51.30;;;25.58;;
26620;SDS011;14253;44.840;10.444;2023-02-15T11:42:55;58.70;;;26.95;;
26620;SDS011;14253;44.840;10.444;2023-02-15T11:45:27;50.90;;;24.85;;
26620;SDS011;14253;44.840;10.444;2023-02-15T11:48:00;57.58;;;25.95;;
26620;SDS011;14253;44.840;10.444;2023-02-15T11:50:27;56.45;;;26.70;;
26620;SDS011;14253;44.840;10.444;2023-02-15T11:52:57;60.35;;;26.23;;
26620;SDS011;14253;44.840;10.444;2023-02-15T11:55:28;55.85;;;26.13;;
26620;SDS011;14253;44.840;10.444;2023-02-15T12:00:33;59.13;;;27.63;;
26620;SDS011;14253;44.840;10.444;2023-02-15T12:03:09;56.25;;;26.77;;
26620;SDS011;14253;44.840;10.444;2023-02-15T12:05:53;60.10;;;27.38;;
26620;SDS011;14253;44.840;10.444;2023-02-15T12:08:25;57.28;;;27.52;;
26620;SDS011;14253;44.840;10.444;2023-02-15T12:11:06;57.40;;;28.35;;
26620;SDS011;14253;44.840;10.444;2023-02-15T12:16:28;55.25;;;26.17;;
26620;SDS011;14253;44.840;10.444;2023-02-15T12:18:57;65.43;;;30.30;;
26620;SDS011;14253;44.840;10.444;2023-02-15T12:21:26;65.88;;;29.20;;
26620;SDS011;14253;44.840;10.444;2023-02-15T12:24:03;59.30;;;29.30;;
26620;SDS011;14253;44.840;10.444;2023-02-15T12:26:40;61.47;;;27.70;;
26620;SDS011;14253;44.840;10.444;2023-02-15T12:29:07;59.88;;;28.33;;
26620;SDS011;14253;44.840;10.444;2023-02-15T12:31:43;58.10;;;29.20;;
26620;SDS011;14253;44.840;10.444;2023-02-15T12:34:17;56.85;;;27.98;;
26620;SDS011;14253;44.840;10.444;2023-02-15T12:36:53;58.20;;;28.80;;
26620;SDS011;14253;44.840;10.444;2023-02-15T12:39:31;64.83;;;28.70;;
26620;SDS011;14253;44.840;10.444;2023-02-15T12:42:03;58.85;;;29.83;;
26620;SDS011;14253;44.840;10.444;2023-02-15T12:44:38;61.20;;;29.05;;
26620;SDS011;14253;44.840;10.444;2023-02-15T12:47:18;65.53;;;30.48;;
26620;SDS011;14253;44.840;10.444;2023-02-15T12:49:45;60.00;;;28.52;;
26620;SDS011;14253;44.840;10.444;2023-02-15T12:52:48;70.57;;;30.58;;
26620;SDS011;14253;44.840;10.444;2023-02-15T12:55:24;60.17;;;29.83;;
26620;SDS011;14253;44.840;10.444;2023-02-15T12:58:08;61.67;;;30.98;;
26620;SDS011;14253;44.840;10.444;2023-02-15T13:00:45;62.17;;;30.48;;
26620;SDS011;14253;44.840;10.444;2023-02-15T13:03:18;67.10;;;30.10;;
26620;SDS011;14253;44.840;10.444;2023-02-15T13:05:48;65.25;;;31.17;;
26620;SDS011;14253;44.840;10.444;2023-02-15T13:08:19;59.95;;;29.75;;
26620;SDS011;14253;44.840;10.444;2023-02-15T13:11:28;62.15;;;30.27;;
26620;SDS011;14253;44.840;10.444;2023-02-15T13:14:18;62.35;;;31.00;;
26620;SDS011;14253;44.840;10.444;2023-02-15T13:16:47;60.30;;;30.83;;
26620;SDS011;14253;44.840;10.444;2023-02-15T13:19:40;65.53;;;30.52;;
26620;SDS011;14253;44.840;10.444;2023-02-15T13:25:03;61.13;;;28.63;;
26620;SDS011;14253;44.840;10.444;2023-02-15T13:27:37;61.15;;;29.50;;
26620;SDS011;14253;44.840;10.444;2023-02-15T13:30:22;64.15;;;30.05;;
26620;SDS011;14253;44.840;10.444;2023-02-15T13:33:04;58.58;;;28.60;;
26620;SDS011;14253;44.840;10.444;2023-02-15T13:35:42;63.88;;;29.35;;
26620;SDS011;14253;44.840;10.444;2023-02-15T13:38:44;64.72;;;29.67;;
26620;SDS011;14253;44.840;10.444;2023-02-15T13:41:15;63.60;;;31.30;;
26620;SDS011;14253;44.840;10.444;2023-02-15T13:46:32;68.50;;;30.42;;
26620;SDS011;14253;44.840;10.444;2023-02-15T13:49:14;62.00;;;29.27;;
26620;SDS011;14253;44.840;10.444;2023-02-15T13:51:57;68.93;;;31.27;;
26620;SDS011;14253;44.840;10.444;2023-02-15T14:03:04;66.97;;;30.08;;
26620;SDS011;14253;44.840;10.444;2023-02-15T14:05:51;60.85;;;30.20;;
26620;SDS011;14253;44.840;10.444;2023-02-15T14:08:37;62.53;;;28.00;;
26620;SDS011;14253;44.840;10.444;2023-02-15T14:11:28;67.10;;;29.77;;
26620;SDS011;14253;44.840;10.444;2023-02-15T14:22:39;65.93;;;29.30;;
26620;SDS011;14253;44.840;10.444;2023-02-15T14:28:37;62.00;;;29.10;;
26620;SDS011;14253;44.840;10.444;2023-02-15T14:33:53;57.45;;;26.63;;
26620;SDS011;14253;44.840;10.444;2023-02-15T14:36:21;59.05;;;27.65;;
26620;SDS011;14253;44.840;10.444;2023-02-15T14:44:01;58.45;;;27.67;;
26620;SDS011;14253;44.840;10.444;2023-02-15T14:46:44;59.90;;;28.48;;
26620;SDS011;14253;44.840;10.444;2023-02-15T14:49:14;55.35;;;27.55;;
26620;SDS011;14253;44.840;10.444;2023-02-15T14:56:43;50.25;;;26.42;;
26620;SDS011;14253;44.840;10.444;2023-02-15T15:01:57;48.60;;;24.08;;
26620;SDS011;14253;44.840;10.444;2023-02-15T15:06:59;52.03;;;25.85;;
26620;SDS011;14253;44.840;10.444;2023-02-15T15:09:28;51.97;;;25.63;;
26620;SDS011;14253;44.840;10.444;2023-02-15T15:12:13;49.97;;;26.00;;
26620;SDS011;14253;44.840;10.444;2023-02-15T15:14:43;50.60;;;26.98;;
26620;SDS011;14253;44.840;10.444;2023-02-15T15:17:11;49.35;;;26.65;;
26620;SDS011;14253;44.840;10.444;2023-02-15T15:22:25;55.25;;;27.48;;
26620;SDS011;14253;44.840;10.444;2023-02-15T15:25:09;48.92;;;25.58;;
26620;SDS011;14253;44.840;10.444;2023-02-15T15:27:48;52.40;;;26.90;;
26620;SDS011;14253;44.840;10.444;2023-02-15T15:32:46;50.55;;;26.95;;
26620;SDS011;14253;44.840;10.444;2023-02-15T15:38:02;53.28;;;27.33;;
26620;SDS011;14253;44.840;10.444;2023-02-15T15:46:35;53.88;;;25.27;;
26620;SDS011;14253;44.840;10.444;2023-02-15T15:49:15;50.75;;;25.63;;
26620;SDS011;14253;44.840;10.444;2023-02-15T15:51:43;47.35;;;22.80;;
26620;SDS011;14253;44.840;10.444;2023-02-15T15:54:19;51.92;;;24.83;;
26620;SDS011;14253;44.840;10.444;2023-02-15T15:56:49;51.67;;;25.33;;
26620;SDS011;14253;44.840;10.444;2023-02-15T15:59:26;58.53;;;26.30;;
26620;SDS011;14253;44.840;10.444;2023-02-15T16:01:56;86.22;;;39.05;;
26620;SDS011;14253;44.840;10.444;2023-02-15T16:04:30;76.65;;;38.10;;
26620;SDS011;14253;44.840;10.444;2023-02-15T16:07:01;75.03;;;39.53;;
26620;SDS011;14253;44.840;10.444;2023-02-15T16:09:41;64.82;;;31.55;;
26620;SDS011;14253;44.840;10.444;2023-02-15T16:12:21;59.05;;;28.27;;
26620;SDS011;14253;44.840;10.444;2023-02-15T16:14:48;60.58;;;25.85;;
26620;SDS011;14253;44.840;10.444;2023-02-15T16:17:20;56.90;;;26.02;;
26620;SDS011;14253;44.840;10.444;2023-02-15T16:19:49;56.25;;;25.95;;
26620;SDS011;14253;44.840;10.444;2023-02-15T16:22:25;60.78;;;25.02;;
26620;SDS011;14253;44.840;10.444;2023-02-15T16:27:46;68.03;;;26.35;;
26620;SDS011;14253;44.840;10.444;2023-02-15T16:33:04;62.70;;;25.17;;
26620;SDS011;14253;44.840;10.444;2023-02-15T16:35:39;60.75;;;25.90;;
26620;SDS011;14253;44.840;10.444;2023-02-15T16:38:17;58.38;;;25.73;;
26620;SDS011;14253;44.840;10.444;2023-02-15T16:41:05;58.95;;;24.85;;
26620;SDS011;14253;44.840;10.444;2023-02-15T16:43:31;66.25;;;27.63;;
26620;SDS011;14253;44.840;10.444;2023-02-15T16:46:04;83.03;;;36.08;;
26620;SDS011;14253;44.840;10.444;2023-02-15T16:48:40;91.63;;;37.33;;
26620;SDS011;14253;44.840;10.444;2023-02-15T16:51:09;86.03;;;36.42;;
26620;SDS011;14253;44.840;10.444;2023-02-15T16:53:35;69.40;;;30.65;;
26620;SDS011;14253;44.840;10.444;2023-02-15T16:56:03;74.85;;;30.00;;
26620;SDS011;14253;44.840;10.444;2023-02-15T16:58:43;75.68;;;31.05;;
26620;SDS011;14253;44.840;10.444;2023-02-15T17:01:12;68.22;;;28.73;;
26620;SDS011;14253;44.840;10.444;2023-02-15T17:03:40;70.20;;;29.08;;
26620;SDS011;14253;44.840;10.444;2023-02-15T17:09:05;65.70;;;27.65;;
26620;SDS011;14253;44.840;10.444;2023-02-15T17:11:40;66.25;;;25.92;;
26620;SDS011;14253;44.840;10.444;2023-02-15T17:16:43;60.70;;;25.15;;
26620;SDS011;14253;44.840;10.444;2023-02-15T17:19:29;59.65;;;24.63;;
26620;SDS011;14253;44.840;10.444;2023-02-15T17:29:43;57.50;;;25.13;;
26620;SDS011;14253;44.840;10.444;2023-02-15T17:32:24;60.03;;;24.58;;
26620;SDS011;14253;44.840;10.444;2023-02-15T17:37:44;66.03;;;26.10;;
26620;SDS011;14253;44.840;10.444;2023-02-15T17:40:22;66.68;;;26.40;;
26620;SDS011;14253;44.840;10.444;2023-02-15T17:42:50;70.72;;;28.48;;
26620;SDS011;14253;44.840;10.444;2023-02-15T17:45:16;62.08;;;25.23;;